Terminal Aerodrome Forecast
Issued by NWS Wilmington, OH

Current Version | Previous Version | Graphics & Text | Print | Product List | Glossary On
Versions: 1 2 3 4 5 6 7 8 9 10 11 12 13 14 15 16 17 18
000
FTUS41 KILN 010900 AAA
TAFCMH
TAF AMD
KCMH 010916Z 0109/0206 29005KT 4SM BR SCT006 SCT040
      TEMPO 0109/0112 2SM BR
     FM011200 33005KT 4SM HZ SCT006 SCT040
     FM011500 32007KT P6SM SCT040
     FM020000 35004KT P6SM SCT050=

USA.gov is the U.S. government's official web portal to all federal, state and local government web resources and services.